sensor_id;sensor_type;location;lat;lon;timestamp;pressure;altitude;pressure_sealevel;temperature;humidity
15750;BME280;7976;52.526;13.326;2022-11-23T00:02:08;99920.97;;;3.72;89.40
15750;BME280;7976;52.526;13.326;2022-11-23T00:04:35;99918.41;;;3.71;89.50
15750;BME280;7976;52.526;13.326;2022-11-23T00:07:02;99901.97;;;3.73;89.64
15750;BME280;7976;52.526;13.326;2022-11-23T00:09:29;99908.81;;;3.76;90.01
15750;BME280;7976;52.526;13.326;2022-11-23T00:11:56;99905.41;;;3.74;89.51
15750;BME280;7976;52.526;13.326;2022-11-23T00:14:25;99906.34;;;3.71;89.55
15750;BME280;7976;52.526;13.326;2022-11-23T00:16:53;99909.72;;;3.75;89.59
15750;BME280;7976;52.526;13.326;2022-11-23T00:19:24;99908.88;;;3.73;89.72
15750;BME280;7976;52.526;13.326;2022-11-23T00:21:54;99907.13;;;3.73;89.77
15750;BME280;7976;52.526;13.326;2022-11-23T00:24:21;99905.38;;;3.75;89.25
15750;BME280;7976;52.526;13.326;2022-11-23T00:26:51;99904.53;;;3.75;89.47
15750;BME280;7976;52.526;13.326;2022-11-23T00:29:18;99900.19;;;3.75;89.41
15750;BME280;7976;52.526;13.326;2022-11-23T00:31:45;99899.41;;;3.72;89.34
15750;BME280;7976;52.526;13.326;2022-11-23T00:34:16;99906.25;;;3.74;89.29
15750;BME280;7976;52.526;13.326;2022-11-23T00:36:43;99904.53;;;3.73;89.56
15750;BME280;7976;52.526;13.326;2022-11-23T00:39:10;99910.53;;;3.75;89.66
15750;BME280;7976;52.526;13.326;2022-11-23T00:41:37;99907.88;;;3.78;89.58
15750;BME280;7976;52.526;13.326;2022-11-23T00:44:05;99925.16;;;3.78;89.33
15750;BME280;7976;52.526;13.326;2022-11-23T00:46:32;99923.47;;;3.75;89.39
15750;BME280;7976;52.526;13.326;2022-11-23T00:49:00;99921.75;;;3.76;89.50
15750;BME280;7976;52.526;13.326;2022-11-23T00:51:31;99931.97;;;3.80;89.57
15750;BME280;7976;52.526;13.326;2022-11-23T00:53:59;99937.16;;;3.80;89.39
15750;BME280;7976;52.526;13.326;2022-11-23T00:56:29;99942.34;;;3.79;89.15
15750;BME280;7976;52.526;13.326;2022-11-23T00:59:00;99943.31;;;3.76;89.29
15750;BME280;7976;52.526;13.326;2022-11-23T01:01:29;99938.91;;;3.80;89.36
15750;BME280;7976;52.526;13.326;2022-11-23T01:04:01;99928.56;;;3.80;89.43
15750;BME280;7976;52.526;13.326;2022-11-23T01:06:33;99936.38;;;3.77;89.32
15750;BME280;7976;52.526;13.326;2022-11-23T01:09:05;99938.94;;;3.77;89.25
15750;BME280;7976;52.526;13.326;2022-11-23T01:11:32;99928.59;;;3.77;89.30
15750;BME280;7976;52.526;13.326;2022-11-23T01:13:59;99926.91;;;3.76;89.54
15750;BME280;7976;52.526;13.326;2022-11-23T01:16:30;99921.72;;;3.77;89.36
15750;BME280;7976;52.526;13.326;2022-11-23T01:19:01;99933.78;;;3.77;89.42
15750;BME280;7976;52.526;13.326;2022-11-23T01:21:31;99927.00;;;3.73;89.35
15750;BME280;7976;52.526;13.326;2022-11-23T01:24:03;99922.59;;;3.76;89.61
15750;BME280;7976;52.526;13.326;2022-11-23T01:26:38;99931.03;;;3.84;89.72
15750;BME280;7976;52.526;13.326;2022-11-23T01:29:09;99925.81;;;3.86;89.49
15750;BME280;7976;52.526;13.326;2022-11-23T01:31:38;99931.88;;;3.85;89.45
15750;BME280;7976;52.526;13.326;2022-11-23T01:34:11;99931.94;;;3.82;89.27
15750;BME280;7976;52.526;13.326;2022-11-23T01:36:41;99936.25;;;3.83;89.46
15750;BME280;7976;52.526;13.326;2022-11-23T01:39:11;99937.91;;;3.85;89.49
15750;BME280;7976;52.526;13.326;2022-11-23T01:41:41;99938.75;;;3.86;89.51
15750;BME280;7976;52.526;13.326;2022-11-23T01:44:25;99943.84;;;3.89;89.52
15750;BME280;7976;52.526;13.326;2022-11-23T01:46:55;99940.41;;;3.88;88.90
15750;BME280;7976;52.526;13.326;2022-11-23T01:49:24;99943.84;;;3.89;89.16
15750;BME280;7976;52.526;13.326;2022-11-23T01:51:58;99937.00;;;3.88;89.53
15750;BME280;7976;52.526;13.326;2022-11-23T01:54:33;99939.41;;;3.94;89.16
15750;BME280;7976;52.526;13.326;2022-11-23T01:57:08;99946.28;;;3.97;89.05
15750;BME280;7976;52.526;13.326;2022-11-23T01:59:37;99945.38;;;3.98;89.05
15750;BME280;7976;52.526;13.326;2022-11-23T02:02:06;99941.94;;;3.97;89.04
15750;BME280;7976;52.526;13.326;2022-11-23T02:04:41;99946.19;;;4.00;89.13
15750;BME280;7976;52.526;13.326;2022-11-23T02:07:16;99943.53;;;4.03;89.16
15750;BME280;7976;52.526;13.326;2022-11-23T02:09:45;99943.50;;;4.04;89.14
15750;BME280;7976;52.526;13.326;2022-11-23T02:12:13;99940.84;;;4.06;88.95
15750;BME280;7976;52.526;13.326;2022-11-23T02:14:43;99939.94;;;4.08;88.99
15750;BME280;7976;52.526;13.326;2022-11-23T02:17:11;99938.19;;;4.10;88.92
15750;BME280;7976;52.526;13.326;2022-11-23T02:19:48;99942.47;;;4.11;88.94
15750;BME280;7976;52.526;13.326;2022-11-23T02:22:29;99936.38;;;4.12;88.95
15750;BME280;7976;52.526;13.326;2022-11-23T02:25:00;99938.97;;;4.12;88.94
15750;BME280;7976;52.526;13.326;2022-11-23T02:27:31;99929.47;;;4.13;88.74
15750;BME280;7976;52.526;13.326;2022-11-23T02:30:00;99935.56;;;4.12;88.56
15750;BME280;7976;52.526;13.326;2022-11-23T02:32:29;99921.78;;;4.10;88.71
15750;BME280;7976;52.526;13.326;2022-11-23T02:34:57;99929.44;;;4.14;88.80
15750;BME280;7976;52.526;13.326;2022-11-23T02:37:24;99919.88;;;4.18;88.71
15750;BME280;7976;52.526;13.326;2022-11-23T02:39:53;99920.72;;;4.18;88.71
15750;BME280;7976;52.526;13.326;2022-11-23T02:42:23;99928.44;;;4.20;88.51
15750;BME280;7976;52.526;13.326;2022-11-23T02:45:05;99924.25;;;4.14;88.47
15750;BME280;7976;52.526;13.326;2022-11-23T02:47:36;99930.25;;;4.16;88.52
15750;BME280;7976;52.526;13.326;2022-11-23T02:50:04;99919.97;;;4.13;88.36
15750;BME280;7976;52.526;13.326;2022-11-23T02:52:31;99931.28;;;4.09;88.07
15750;BME280;7976;52.526;13.326;2022-11-23T02:54:58;99928.03;;;4.01;88.41
15750;BME280;7976;52.526;13.326;2022-11-23T02:57:25;99934.16;;;3.97;88.77
15750;BME280;7976;52.526;13.326;2022-11-23T02:59:53;99932.47;;;3.96;89.00
15750;BME280;7976;52.526;13.326;2022-11-23T03:02:20;99941.97;;;3.96;88.78
15750;BME280;7976;52.526;13.326;2022-11-23T03:04:47;99947.22;;;3.93;88.68
15750;BME280;7976;52.526;13.326;2022-11-23T03:07:17;99951.44;;;3.97;89.20
15750;BME280;7976;52.526;13.326;2022-11-23T03:09:46;99946.19;;;4.00;89.04
15750;BME280;7976;52.526;13.326;2022-11-23T03:12:13;99950.44;;;4.02;88.98
15750;BME280;7976;52.526;13.326;2022-11-23T03:14:41;99948.75;;;4.01;88.74
15750;BME280;7976;52.526;13.326;2022-11-23T03:17:09;99948.81;;;3.98;88.80
15750;BME280;7976;52.526;13.326;2022-11-23T03:19:40;99950.66;;;3.93;88.74
15750;BME280;7976;52.526;13.326;2022-11-23T03:22:07;99943.84;;;3.89;88.75
15750;BME280;7976;52.526;13.326;2022-11-23T03:24:34;99948.19;;;3.87;88.86
15750;BME280;7976;52.526;13.326;2022-11-23T03:27:04;99945.69;;;3.84;88.95
15750;BME280;7976;52.526;13.326;2022-11-23T03:29:32;99955.97;;;3.87;89.14
15750;BME280;7976;52.526;13.326;2022-11-23T03:32:04;99946.44;;;3.89;89.03
15750;BME280;7976;52.526;13.326;2022-11-23T03:34:33;99950.78;;;3.87;89.09
15750;BME280;7976;52.526;13.326;2022-11-23T03:37:00;99956.81;;;3.88;89.37
15750;BME280;7976;52.526;13.326;2022-11-23T03:39:28;99952.50;;;3.88;89.36
15750;BME280;7976;52.526;13.326;2022-11-23T03:42:28;99947.41;;;3.85;88.95
15750;BME280;7976;52.526;13.326;2022-11-23T03:44:56;99952.72;;;3.79;88.90
15750;BME280;7976;52.526;13.326;2022-11-23T03:47:27;99941.47;;;3.81;89.26
15750;BME280;7976;52.526;13.326;2022-11-23T03:50:01;99944.13;;;3.77;89.01
15750;BME280;7976;52.526;13.326;2022-11-23T03:52:30;99943.34;;;3.73;88.76
15750;BME280;7976;52.526;13.326;2022-11-23T03:54:58;99942.50;;;3.73;89.02
15750;BME280;7976;52.526;13.326;2022-11-23T03:57:26;99952.94;;;3.70;88.92
15750;BME280;7976;52.526;13.326;2022-11-23T03:59:56;99947.03;;;3.63;89.03
15750;BME280;7976;52.526;13.326;2022-11-23T04:02:29;99953.91;;;3.64;89.44
15750;BME280;7976;52.526;13.326;2022-11-23T04:05:06;99953.84;;;3.67;89.37
15750;BME280;7976;52.526;13.326;2022-11-23T04:07:56;99960.66;;;3.71;89.77
15750;BME280;7976;52.526;13.326;2022-11-23T04:10:24;99951.22;;;3.69;89.72
15750;BME280;7976;52.526;13.326;2022-11-23T04:13:00;99958.16;;;3.67;89.57
15750;BME280;7976;52.526;13.326;2022-11-23T04:15:28;99959.88;;;3.68;89.72
15750;BME280;7976;52.526;13.326;2022-11-23T04:17:55;99955.59;;;3.65;89.56
15750;BME280;7976;52.526;13.326;2022-11-23T04:20:24;99945.28;;;3.64;89.59
15750;BME280;7976;52.526;13.326;2022-11-23T04:22:53;99942.75;;;3.62;89.53
15750;BME280;7976;52.526;13.326;2022-11-23T04:25:20;99956.53;;;3.63;89.64
15750;BME280;7976;52.526;13.326;2022-11-23T04:27:51;99947.06;;;3.62;89.94
15750;BME280;7976;52.526;13.326;2022-11-23T04:30:18;99947.88;;;3.64;89.69
15750;BME280;7976;52.526;13.326;2022-11-23T04:32:49;99958.22;;;3.64;89.90
15750;BME280;7976;52.526;13.326;2022-11-23T04:35:16;99959.94;;;3.63;89.70
15750;BME280;7976;52.526;13.326;2022-11-23T04:37:49;99953.91;;;3.64;90.12
15750;BME280;7976;52.526;13.326;2022-11-23T04:40:17;99959.00;;;3.67;89.91
15750;BME280;7976;52.526;13.326;2022-11-23T04:42:54;99960.78;;;3.65;89.69
15750;BME280;7976;52.526;13.326;2022-11-23T04:45:21;99967.63;;;3.68;89.59
15750;BME280;7976;52.526;13.326;2022-11-23T04:47:50;99966.88;;;3.63;89.59
15750;BME280;7976;52.526;13.326;2022-11-23T04:50:17;99966.16;;;3.56;89.57
15750;BME280;7976;52.526;13.326;2022-11-23T04:52:51;99961.00;;;3.56;89.65
15750;BME280;7976;52.526;13.326;2022-11-23T04:55:23;99953.28;;;3.55;89.44
15750;BME280;7976;52.526;13.326;2022-11-23T04:57:55;99952.44;;;3.53;89.77
15750;BME280;7976;52.526;13.326;2022-11-23T05:00:25;99960.13;;;3.56;89.85
15750;BME280;7976;52.526;13.326;2022-11-23T05:02:54;99961.84;;;3.55;89.60
15750;BME280;7976;52.526;13.326;2022-11-23T05:05:25;99958.31;;;3.61;89.83
15750;BME280;7976;52.526;13.326;2022-11-23T05:07:56;99955.69;;;3.62;89.74
15750;BME280;7976;52.526;13.326;2022-11-23T05:10:27;99958.22;;;3.64;89.68
15750;BME280;7976;52.526;13.326;2022-11-23T05:12:57;99967.72;;;3.63;89.78
15750;BME280;7976;52.526;13.326;2022-11-23T05:15:25;99954.03;;;3.60;89.46
15750;BME280;7976;52.526;13.326;2022-11-23T05:17:52;99951.41;;;3.61;89.54
15750;BME280;7976;52.526;13.326;2022-11-23T05:20:24;99952.97;;;3.67;89.54
15750;BME280;7976;52.526;13.326;2022-11-23T05:22:51;99952.94;;;3.68;89.67
15750;BME280;7976;52.526;13.326;2022-11-23T05:25:22;99954.66;;;3.69;89.29
15750;BME280;7976;52.526;13.326;2022-11-23T05:27:59;99955.44;;;3.73;89.20
15750;BME280;7976;52.526;13.326;2022-11-23T05:30:29;99953.75;;;3.70;89.38
15750;BME280;7976;52.526;13.326;2022-11-23T05:32:59;99953.75;;;3.70;89.21
15750;BME280;7976;52.526;13.326;2022-11-23T05:35:28;99953.81;;;3.69;89.27
15750;BME280;7976;52.526;13.326;2022-11-23T05:37:55;99950.47;;;3.64;89.38
15750;BME280;7976;52.526;13.326;2022-11-23T05:40:23;99947.88;;;3.64;89.43
15750;BME280;7976;52.526;13.326;2022-11-23T05:42:55;99952.19;;;3.63;89.47
15750;BME280;7976;52.526;13.326;2022-11-23T05:45:22;99955.63;;;3.64;89.41
15750;BME280;7976;52.526;13.326;2022-11-23T05:47:54;99948.69;;;3.66;89.27
15750;BME280;7976;52.526;13.326;2022-11-23T05:50:31;99955.56;;;3.67;89.73
15750;BME280;7976;52.526;13.326;2022-11-23T05:53:17;99954.63;;;3.71;89.41
15750;BME280;7976;52.526;13.326;2022-11-23T05:55:48;99959.72;;;3.74;89.24
15750;BME280;7976;52.526;13.326;2022-11-23T05:58:17;99953.66;;;3.76;89.42
15750;BME280;7976;52.526;13.326;2022-11-23T06:00:44;99946.69;;;3.78;89.37
15750;BME280;7976;52.526;13.326;2022-11-23T06:03:12;99942.34;;;3.79;88.83
15750;BME280;7976;52.526;13.326;2022-11-23T06:05:40;99934.72;;;3.74;89.30
15750;BME280;7976;52.526;13.326;2022-11-23T06:08:08;99948.56;;;3.72;88.82
15750;BME280;7976;52.526;13.326;2022-11-23T06:10:38;99959.94;;;3.65;88.97
15750;BME280;7976;52.526;13.326;2022-11-23T06:13:07;99957.44;;;3.60;88.97
15750;BME280;7976;52.526;13.326;2022-11-23T06:15:34;99957.50;;;3.57;89.15
15750;BME280;7976;52.526;13.326;2022-11-23T06:18:02;99959.28;;;3.55;89.41
15750;BME280;7976;52.526;13.326;2022-11-23T06:20:41;99973.91;;;3.56;89.34
15750;BME280;7976;52.526;13.326;2022-11-23T06:23:07;99967.88;;;3.56;89.35
15750;BME280;7976;52.526;13.326;2022-11-23T06:25:35;99975.63;;;3.57;89.41
15750;BME280;7976;52.526;13.326;2022-11-23T06:28:08;99972.16;;;3.57;89.43
15750;BME280;7976;52.526;13.326;2022-11-23T06:30:42;99973.06;;;3.56;89.16
15750;BME280;7976;52.526;13.326;2022-11-23T06:33:09;99979.97;;;3.55;89.54
15750;BME280;7976;52.526;13.326;2022-11-23T06:35:52;99978.31;;;3.53;89.42
15750;BME280;7976;52.526;13.326;2022-11-23T06:38:20;99975.72;;;3.53;89.49
15750;BME280;7976;52.526;13.326;2022-11-23T06:40:57;99980.97;;;3.50;89.43
15750;BME280;7976;52.526;13.326;2022-11-23T06:43:27;99983.56;;;3.50;89.63
15750;BME280;7976;52.526;13.326;2022-11-23T06:45:55;99991.31;;;3.50;89.61
15750;BME280;7976;52.526;13.326;2022-11-23T06:48:25;99986.13;;;3.50;89.42
15750;BME280;7976;52.526;13.326;2022-11-23T06:50:52;99999.94;;;3.49;89.29
15750;BME280;7976;52.526;13.326;2022-11-23T06:53:23;99991.22;;;3.53;89.60
15750;BME280;7976;52.526;13.326;2022-11-23T06:55:58;99987.75;;;3.54;89.52
15750;BME280;7976;52.526;13.326;2022-11-23T06:58:27;99985.13;;;3.55;89.73
15750;BME280;7976;52.526;13.326;2022-11-23T07:00:58;99989.47;;;3.53;89.44
15750;BME280;7976;52.526;13.326;2022-11-23T07:03:26;99995.47;;;3.55;89.71
15750;BME280;7976;52.526;13.326;2022-11-23T07:06:06;99982.50;;;3.57;89.34
15750;BME280;7976;52.526;13.326;2022-11-23T07:08:34;99984.22;;;3.58;89.33
15750;BME280;7976;52.526;13.326;2022-11-23T07:11:16;99993.69;;;3.59;89.18
15750;BME280;7976;52.526;13.326;2022-11-23T07:13:46;99993.75;;;3.56;89.01
15750;BME280;7976;52.526;13.326;2022-11-23T07:16:13;99996.34;;;3.56;88.94
15750;BME280;7976;52.526;13.326;2022-11-23T07:18:40;100001.50;;;3.56;89.00
15750;BME280;7976;52.526;13.326;2022-11-23T07:21:07;100006.72;;;3.54;89.42
15750;BME280;7976;52.526;13.326;2022-11-23T07:23:34;100014.44;;;3.56;89.46
15750;BME280;7976;52.526;13.326;2022-11-23T07:26:05;100012.69;;;3.58;89.29
15750;BME280;7976;52.526;13.326;2022-11-23T07:28:32;100005.75;;;3.58;89.26
15750;BME280;7976;52.526;13.326;2022-11-23T07:31:00;100013.50;;;3.60;89.31
15750;BME280;7976;52.526;13.326;2022-11-23T07:33:28;100017.78;;;3.61;89.12
15750;BME280;7976;52.526;13.326;2022-11-23T07:35:55;100028.94;;;3.63;89.32
15750;BME280;7976;52.526;13.326;2022-11-23T07:38:21;100027.22;;;3.62;89.12
15750;BME280;7976;52.526;13.326;2022-11-23T07:40:49;100024.59;;;3.63;88.95
15750;BME280;7976;52.526;13.326;2022-11-23T07:43:33;100015.94;;;3.66;89.16
15750;BME280;7976;52.526;13.326;2022-11-23T07:46:02;100011.63;;;3.66;89.18
15750;BME280;7976;52.526;13.326;2022-11-23T07:48:29;100017.59;;;3.70;89.24
15750;BME280;7976;52.526;13.326;2022-11-23T07:50:56;100021.88;;;3.71;89.13
15750;BME280;7976;52.526;13.326;2022-11-23T07:53:23;100036.50;;;3.72;89.34
15750;BME280;7976;52.526;13.326;2022-11-23T07:55:55;100040.88;;;3.70;88.83
15750;BME280;7976;52.526;13.326;2022-11-23T07:58:22;100040.88;;;3.70;88.82
15750;BME280;7976;52.526;13.326;2022-11-23T08:00:49;100027.88;;;3.73;88.94
15750;BME280;7976;52.526;13.326;2022-11-23T08:03:17;100042.56;;;3.71;88.79
15750;BME280;7976;52.526;13.326;2022-11-23T08:05:44;100042.56;;;3.71;88.55
15750;BME280;7976;52.526;13.326;2022-11-23T08:08:11;100047.69;;;3.72;88.76
15750;BME280;7976;52.526;13.326;2022-11-23T08:10:37;100044.22;;;3.75;88.83
15750;BME280;7976;52.526;13.326;2022-11-23T08:13:05;100045.84;;;3.79;88.91
15750;BME280;7976;52.526;13.326;2022-11-23T08:15:33;100044.91;;;3.83;88.73
15750;BME280;7976;52.526;13.326;2022-11-23T08:18:02;100043.94;;;3.87;88.79
15750;BME280;7976;52.526;13.326;2022-11-23T08:20:31;100049.84;;;3.92;88.82
15750;BME280;7976;52.526;13.326;2022-11-23T08:22:58;100042.00;;;3.97;88.98
15750;BME280;7976;52.526;13.326;2022-11-23T08:25:27;100043.63;;;4.01;88.73
15750;BME280;7976;52.526;13.326;2022-11-23T08:27:55;100048.78;;;4.02;88.42
15750;BME280;7976;52.526;13.326;2022-11-23T08:30:24;100053.91;;;4.05;88.40
15750;BME280;7976;52.526;13.326;2022-11-23T08:32:51;100059.09;;;4.05;88.21
15750;BME280;7976;52.526;13.326;2022-11-23T08:35:18;100054.78;;;4.04;88.05
15750;BME280;7976;52.526;13.326;2022-11-23T08:37:47;100046.13;;;4.05;88.19
15750;BME280;7976;52.526;13.326;2022-11-23T08:40:14;100051.31;;;4.04;87.94
15750;BME280;7976;52.526;13.326;2022-11-23T08:42:41;100048.72;;;4.04;88.00
15750;BME280;7976;52.526;13.326;2022-11-23T08:45:09;100050.50;;;4.03;87.91
15750;BME280;7976;52.526;13.326;2022-11-23T08:47:36;100047.88;;;4.05;87.91
15750;BME280;7976;52.526;13.326;2022-11-23T08:50:05;100048.72;;;4.05;87.94
15750;BME280;7976;52.526;13.326;2022-11-23T08:52:32;100052.09;;;4.07;87.93
15750;BME280;7976;52.526;13.326;2022-11-23T08:55:00;100055.41;;;4.15;87.71
15750;BME280;7976;52.526;13.326;2022-11-23T08:57:26;100060.44;;;4.21;87.95
15750;BME280;7976;52.526;13.326;2022-11-23T08:59:53;100056.81;;;4.28;88.11
15750;BME280;7976;52.526;13.326;2022-11-23T09:02:20;100056.75;;;4.31;87.69
15750;BME280;7976;52.526;13.326;2022-11-23T09:04:47;100060.22;;;4.30;87.49
15750;BME280;7976;52.526;13.326;2022-11-23T09:07:14;100060.28;;;4.27;87.32
15750;BME280;7976;52.526;13.326;2022-11-23T09:09:41;100051.63;;;4.28;87.43
15750;BME280;7976;52.526;13.326;2022-11-23T09:12:09;100062.75;;;4.33;87.63
15750;BME280;7976;52.526;13.326;2022-11-23T09:14:35;100055.75;;;4.37;87.40
15750;BME280;7976;52.526;13.326;2022-11-23T09:17:03;100058.22;;;4.41;87.30
15750;BME280;7976;52.526;13.326;2022-11-23T09:19:30;100052.06;;;4.47;87.33
15750;BME280;7976;52.526;13.326;2022-11-23T09:21:57;100057.94;;;4.53;87.24
15750;BME280;7976;52.526;13.326;2022-11-23T09:24:23;100050.06;;;4.58;87.38
15750;BME280;7976;52.526;13.326;2022-11-23T09:26:52;100052.53;;;4.62;87.09
15750;BME280;7976;52.526;13.326;2022-11-23T09:29:20;100047.28;;;4.65;86.99
15750;BME280;7976;52.526;13.326;2022-11-23T09:31:47;100048.97;;;4.66;86.91
15750;BME280;7976;52.526;13.326;2022-11-23T09:34:14;100053.22;;;4.70;87.12
15750;BME280;7976;52.526;13.326;2022-11-23T09:36:41;100043.59;;;4.74;87.01
15750;BME280;7976;52.526;13.326;2022-11-23T09:39:08;100053.00;;;4.78;86.87
15750;BME280;7976;52.526;13.326;2022-11-23T09:45:19;100036.38;;;4.86;86.39
15750;BME280;7976;52.526;13.326;2022-11-23T09:48:17;100038.06;;;4.87;86.13
15750;BME280;7976;52.526;13.326;2022-11-23T09:50:51;100034.53;;;4.91;86.18
15750;BME280;7976;52.526;13.326;2022-11-23T09:53:32;100040.34;;;4.99;86.29
15750;BME280;7976;52.526;13.326;2022-11-23T09:56:01;100042.72;;;5.08;86.29
15750;BME280;7976;52.526;13.326;2022-11-23T09:58:32;100035.53;;;5.18;86.11
15750;BME280;7976;52.526;13.326;2022-11-23T10:01:06;100034.44;;;5.27;86.06
15750;BME280;7976;52.526;13.326;2022-11-23T10:03:36;100034.25;;;5.33;85.68
15750;BME280;7976;52.526;13.326;2022-11-23T10:06:15;100037.41;;;5.44;85.88
15750;BME280;7976;52.526;13.326;2022-11-23T10:08:56;100033.38;;;5.64;86.13
15750;BME280;7976;52.526;13.326;2022-11-23T10:11:58;100031.19;;;6.09;85.61
15750;BME280;7976;52.526;13.326;2022-11-23T10:14:50;100029.22;;;6.43;83.96
15750;BME280;7976;52.526;13.326;2022-11-23T10:17:36;100028.31;;;6.44;82.70
15750;BME280;7976;52.526;13.326;2022-11-23T10:20:30;100030.31;;;6.36;82.31
15750;BME280;7976;52.526;13.326;2022-11-23T10:23:12;100021.03;;;6.29;82.43
15750;BME280;7976;52.526;13.326;2022-11-23T10:25:48;100030.72;;;6.24;82.55
15750;BME280;7976;52.526;13.326;2022-11-23T10:28:19;100025.63;;;6.21;82.73
15750;BME280;7976;52.526;13.326;2022-11-23T10:30:52;100020.31;;;6.24;82.76
15750;BME280;7976;52.526;13.326;2022-11-23T10:33:29;100030.59;;;6.27;82.72
15750;BME280;7976;52.526;13.326;2022-11-23T10:35:57;100022.66;;;6.31;83.07
15750;BME280;7976;52.526;13.326;2022-11-23T10:38:26;100020.81;;;6.35;82.88
15750;BME280;7976;52.526;13.326;2022-11-23T10:41:02;100021.47;;;6.42;83.01
15750;BME280;7976;52.526;13.326;2022-11-23T10:43:38;100018.69;;;6.48;82.87
15750;BME280;7976;52.526;13.326;2022-11-23T10:46:30;100015.00;;;6.53;82.94
15750;BME280;7976;52.526;13.326;2022-11-23T10:49:15;100020.03;;;6.59;82.89
15750;BME280;7976;52.526;13.326;2022-11-23T10:51:51;100015.38;;;6.69;82.67
15750;BME280;7976;52.526;13.326;2022-11-23T10:54:23;100017.56;;;6.81;82.59
15750;BME280;7976;52.526;13.326;2022-11-23T10:56:52;100019.13;;;6.86;82.35
15750;BME280;7976;52.526;13.326;2022-11-23T10:59:33;100018.09;;;6.90;82.36
15750;BME280;7976;52.526;13.326;2022-11-23T11:02:17;100019.75;;;6.93;81.90
15750;BME280;7976;52.526;13.326;2022-11-23T11:04:49;100021.28;;;6.98;81.78
15750;BME280;7976;52.526;13.326;2022-11-23T11:07:21;100015.03;;;7.04;81.72
15750;BME280;7976;52.526;13.326;2022-11-23T11:09:51;100007.97;;;7.07;81.57
15750;BME280;7976;52.526;13.326;2022-11-23T11:12:19;100012.06;;;7.14;81.51
15750;BME280;7976;52.526;13.326;2022-11-23T11:14:59;100008.41;;;7.20;81.36
15750;BME280;7976;52.526;13.326;2022-11-23T11:17:31;100006.63;;;7.20;81.15
15750;BME280;7976;52.526;13.326;2022-11-23T11:20:27;100000.53;;;7.21;81.12
15750;BME280;7976;52.526;13.326;2022-11-23T11:22:56;100006.50;;;7.23;80.72
15750;BME280;7976;52.526;13.326;2022-11-23T11:25:29;100007.19;;;7.28;80.94
15750;BME280;7976;52.526;13.326;2022-11-23T11:27:58;100010.53;;;7.32;81.15
15750;BME280;7976;52.526;13.326;2022-11-23T11:30:31;100000.66;;;7.41;80.89
15750;BME280;7976;52.526;13.326;2022-11-23T11:33:10;100006.56;;;7.46;80.97
15750;BME280;7976;52.526;13.326;2022-11-23T11:35:46;99988.34;;;7.46;80.38
15750;BME280;7976;52.526;13.326;2022-11-23T11:38:21;99993.53;;;7.46;80.43
15750;BME280;7976;52.526;13.326;2022-11-23T11:40:51;99997.03;;;7.45;80.13
15750;BME280;7976;52.526;13.326;2022-11-23T11:43:22;100005.75;;;7.44;80.53
15750;BME280;7976;52.526;13.326;2022-11-23T11:45:54;100002.25;;;7.45;80.17
15750;BME280;7976;52.526;13.326;2022-11-23T11:48:31;100001.41;;;7.45;80.42
15750;BME280;7976;52.526;13.326;2022-11-23T11:51:06;100000.63;;;7.43;80.56
15750;BME280;7976;52.526;13.326;2022-11-23T11:53:44;100000.56;;;7.44;80.63
15750;BME280;7976;52.526;13.326;2022-11-23T11:56:29;100010.78;;;7.49;80.70
15750;BME280;7976;52.526;13.326;2022-11-23T11:59:06;100015.81;;;7.53;80.48
15750;BME280;7976;52.526;13.326;2022-11-23T12:01:53;100004.34;;;7.59;80.84
15750;BME280;7976;52.526;13.326;2022-11-23T12:04:27;100006.72;;;7.65;80.66
15750;BME280;7976;52.526;13.326;2022-11-23T12:07:07;99997.09;;;7.67;80.42
15750;BME280;7976;52.526;13.326;2022-11-23T12:09:43;100007.41;;;7.70;80.20
15750;BME280;7976;52.526;13.326;2022-11-23T12:12:15;100011.63;;;7.73;80.22
15750;BME280;7976;52.526;13.326;2022-11-23T12:14:44;100001.22;;;7.73;80.26
15750;BME280;7976;52.526;13.326;2022-11-23T12:17:41;99996.19;;;7.68;80.28
15750;BME280;7976;52.526;13.326;2022-11-23T12:20:25;99998.75;;;7.70;80.28
15750;BME280;7976;52.526;13.326;2022-11-23T12:23:11;100002.97;;;7.72;80.37
15750;BME280;7976;52.526;13.326;2022-11-23T12:25:52;100001.22;;;7.73;80.47
15750;BME280;7976;52.526;13.326;2022-11-23T12:28:47;99999.28;;;7.78;80.39
15750;BME280;7976;52.526;13.326;2022-11-23T12:31:33;100007.66;;;7.86;80.38
15750;BME280;7976;52.526;13.326;2022-11-23T12:34:18;100016.81;;;7.96;80.28
15750;BME280;7976;52.526;13.326;2022-11-23T12:37:16;100009.66;;;8.01;79.73
15750;BME280;7976;52.526;13.326;2022-11-23T12:40:06;100006.19;;;8.02;79.52
15750;BME280;7976;52.526;13.326;2022-11-23T12:42:44;100012.28;;;8.01;79.66
15750;BME280;7976;52.526;13.326;2022-11-23T12:45:27;100014.00;;;8.02;79.44
15750;BME280;7976;52.526;13.326;2022-11-23T12:48:16;100006.19;;;8.02;79.47
15750;BME280;7976;52.526;13.326;2022-11-23T12:50:53;100004.47;;;8.01;79.47
15750;BME280;7976;52.526;13.326;2022-11-23T12:53:44;100011.44;;;8.00;79.54
15750;BME280;7976;52.526;13.326;2022-11-23T12:56:33;99997.56;;;8.00;79.59
15750;BME280;7976;52.526;13.326;2022-11-23T12:59:10;100004.53;;;7.99;79.67
15750;BME280;7976;52.526;13.326;2022-11-23T13:01:41;100003.56;;;8.02;79.58
15750;BME280;7976;52.526;13.326;2022-11-23T13:04:50;100004.31;;;8.05;79.32
15750;BME280;7976;52.526;13.326;2022-11-23T13:07:51;100003.31;;;8.08;79.21
15750;BME280;7976;52.526;13.326;2022-11-23T13:10:42;99990.22;;;8.09;79.49
15750;BME280;7976;52.526;13.326;2022-11-23T13:14:01;99991.09;;;8.10;79.46
15750;BME280;7976;52.526;13.326;2022-11-23T13:16:57;99990.97;;;8.13;79.65
15750;BME280;7976;52.526;13.326;2022-11-23T13:20:03;99984.91;;;8.12;79.25
15750;BME280;7976;52.526;13.326;2022-11-23T13:22:35;99992.84;;;8.09;79.28
15750;BME280;7976;52.526;13.326;2022-11-23T13:25:20;99990.34;;;8.06;79.57
15750;BME280;7976;52.526;13.326;2022-11-23T13:28:29;99994.97;;;8.00;79.20
15750;BME280;7976;52.526;13.326;2022-11-23T13:31:20;99994.22;;;7.96;79.75
15750;BME280;7976;52.526;13.326;2022-11-23T13:33:51;99995.09;;;7.97;79.67
15750;BME280;7976;52.526;13.326;2022-11-23T13:36:41;99983.63;;;8.01;79.62
15750;BME280;7976;52.526;13.326;2022-11-23T13:42:32;99992.03;;;8.07;79.85
15750;BME280;7976;52.526;13.326;2022-11-23T13:45:30;99988.53;;;8.08;79.53